Time;durP1;ratioP1;P1;durP2;ratioP2;P2;SDS_P1;SDS_P2;PMS_P1;PMS_P2;Temp;Humidity;BMP_temperature;BMP_pressure;BME280_temperature;BME280_humidity;BME280_pressure;Samples;Min_cycle;Max_cycle;Signal;HPM_P1;HPM_P2
2023/05/23 00:01:21;;;;;;;24.55;14.57;;;14.00;99.90;;;;;;5042582;28;20038;-63
2023/05/23 00:03:48;;;;;;;31.40;15.13;;;13.90;99.90;;;;;;5043675;28;20488;-65
2023/05/23 00:06:13;;;;;;;30.95;17.30;;;13.90;99.90;;;;;;5044078;28;20048;-64
2023/05/23 00:08:39;;;;;;;26.35;14.43;;;13.90;99.90;;;;;;5044253;28;20460;-65
2023/05/23 00:11:05;;;;;;;30.15;15.68;;;13.90;99.90;;;;;;5045677;28;20086;-65
2023/05/23 00:13:33;;;;;;;34.28;10.80;;;13.90;99.90;;;;;;5046276;28;20484;-66
2023/05/23 00:15:59;;;;;;;31.45;12.90;;;13.90;99.90;;;;;;5042158;28;20411;-65
2023/05/23 00:18:24;;;;;;;39.75;18.35;;;13.80;99.90;;;;;;5042723;28;20037;-67
2023/05/23 00:20:50;;;;;;;31.65;13.88;;;13.80;99.90;;;;;;5074177;28;20037;-65
2023/05/23 00:23:20;;;;;;;47.75;18.92;;;13.70;99.90;;;;;;5043489;28;20037;-66
2023/05/23 00:25:51;;;;;;;35.83;12.88;;;13.60;99.90;;;;;;5039831;28;20076;-64
2023/05/23 00:28:17;;;;;;;46.70;19.67;;;13.50;99.90;;;;;;5061627;28;20041;-66
2023/05/23 00:30:42;;;;;;;29.35;14.02;;;13.40;99.90;;;;;;5042984;28;20037;-65
2023/05/23 00:33:08;;;;;;;46.10;20.33;;;13.50;99.90;;;;;;5039342;28;20123;-68
2023/05/23 00:35:34;;;;;;;24.00;10.95;;;13.40;99.90;;;;;;5042498;28;20396;-63
2023/05/23 00:38:01;;;;;;;41.53;19.60;;;13.30;99.90;;;;;;5044460;28;20040;-66
2023/05/23 00:40:26;;;;;;;38.13;14.27;;;13.40;99.90;;;;;;5041123;28;20048;-64
2023/05/23 00:42:52;;;;;;;34.83;16.60;;;13.50;99.90;;;;;;5042893;28;20045;-64
2023/05/23 00:45:17;;;;;;;35.72;14.43;;;13.30;99.90;;;;;;5040545;28;20393;-65
2023/05/23 00:47:45;;;;;;;38.60;18.65;;;13.50;99.90;;;;;;5045163;28;20098;-65
2023/05/23 00:50:13;;;;;;;46.03;20.15;;;13.40;99.90;;;;;;5042317;28;20128;-63
2023/05/23 00:52:40;;;;;;;34.63;13.98;;;13.40;99.90;;;;;;5041131;28;20452;-65
2023/05/23 00:55:07;;;;;;;40.70;14.57;;;13.30;99.90;;;;;;5038963;28;20044;-64
2023/05/23 00:57:33;;;;;;;26.08;12.55;;;13.40;99.90;;;;;;5044642;28;20460;-66
2023/05/23 01:00:00;;;;;;;26.27;13.02;;;13.40;99.90;;;;;;5041186;28;20049;-65
2023/05/23 01:02:26;;;;;;;32.38;17.63;;;13.40;99.90;;;;;;5038300;28;20083;-64
2023/05/23 01:04:53;;;;;;;33.05;16.40;;;13.20;99.90;;;;;;5044222;28;20048;-66
2023/05/23 01:07:20;;;;;;;36.25;16.63;;;13.20;99.90;;;;;;5038850;28;20098;-68
2023/05/23 01:09:46;;;;;;;41.05;15.30;;;13.10;99.90;;;;;;5039254;28;20179;-68
2023/05/23 01:12:16;;;;;;;38.10;17.83;;;13.20;99.90;;;;;;5038938;28;20124;-66
2023/05/23 01:14:42;;;;;;;24.55;10.85;;;13.10;99.90;;;;;;5040820;28;20049;-66
2023/05/23 01:17:18;;;;;;;36.67;17.33;;;13.10;99.90;;;;;;5042678;28;20102;-68
2023/05/23 01:20:16;;;;;;;34.63;14.18;;;13.10;99.90;;;;;;5041560;28;20130;-66
2023/05/23 01:22:54;;;;;;;44.42;18.65;;;13.00;99.90;;;;;;5041253;28;20064;-65
2023/05/23 01:25:31;;;;;;;29.67;12.07;;;13.10;99.90;;;;;;5040760;28;20072;-65
2023/05/23 01:28:02;;;;;;;40.25;18.40;;;13.10;99.90;;;;;;5045296;28;20041;-67
2023/05/23 01:30:34;;;;;;;38.67;15.95;;;13.00;99.90;;;;;;5024853;28;20361;-67
2023/05/23 01:33:00;;;;;;;42.22;18.00;;;13.10;99.90;;;;;;5039909;28;20114;-66
2023/05/23 01:35:27;;;;;;;44.13;18.42;;;13.00;99.90;;;;;;5044752;28;20045;-66
2023/05/23 01:37:56;;;;;;;36.42;13.50;;;13.10;99.90;;;;;;5044760;28;20384;-68
2023/05/23 01:40:22;;;;;;;31.83;13.65;;;13.00;99.90;;;;;;5039595;28;20087;-68
2023/05/23 01:42:48;;;;;;;34.88;14.75;;;13.00;99.90;;;;;;5044639;28;20373;-67
2023/05/23 01:45:15;;;;;;;20.02;9.73;;;13.00;99.90;;;;;;5037641;28;20099;-67
2023/05/23 01:47:41;;;;;;;38.53;15.77;;;13.00;99.90;;;;;;5075535;28;20049;-66
2023/05/23 01:50:09;;;;;;;22.00;11.23;;;13.00;99.90;;;;;;5040121;28;20045;-64
2023/05/23 01:52:35;;;;;;;25.85;9.65;;;12.90;99.90;;;;;;5043020;28;20048;-66
2023/05/23 01:55:05;;;;;;;21.10;9.85;;;13.10;99.90;;;;;;5044416;28;20029;-66
2023/05/23 01:57:32;;;;;;;18.55;9.38;;;13.00;99.90;;;;;;5068377;28;20037;-67
2023/05/23 01:59:58;;;;;;;19.02;8.45;;;13.00;99.90;;;;;;5038492;28;20059;-66
2023/05/23 02:02:23;;;;;;;28.63;10.20;;;13.00;99.90;;;;;;5071076;28;20033;-64
2023/05/23 02:04:49;;;;;;;25.42;10.90;;;12.90;99.90;;;;;;5042652;28;20102;-66
2023/05/23 02:07:14;;;;;;;19.73;8.73;;;12.90;99.90;;;;;;5042520;28;20171;-67
2023/05/23 02:09:40;;;;;;;26.08;11.52;;;12.90;99.90;;;;;;5071183;28;20062;-65
2023/05/23 02:12:06;;;;;;;23.60;9.68;;;12.90;99.90;;;;;;5039308;28;20047;-67
2023/05/23 02:14:32;;;;;;;22.25;10.25;;;12.90;99.90;;;;;;5042792;28;20468;-66
2023/05/23 02:16:59;;;;;;;31.88;12.98;;;12.90;99.90;;;;;;5036773;28;20132;-67
2023/05/23 02:19:25;;;;;;;18.38;8.77;;;12.90;99.90;;;;;;5041652;28;20074;-67
2023/05/23 02:21:51;;;;;;;24.30;9.48;;;12.90;99.90;;;;;;5073762;28;20041;-65
2023/05/23 02:24:16;;;;;;;30.98;12.57;;;12.80;99.90;;;;;;5041058;28;20051;-66
2023/05/23 02:26:42;;;;;;;29.50;13.50;;;12.80;99.90;;;;;;5043645;28;20128;-65
2023/05/23 02:29:07;;;;;;;22.45;9.43;;;12.70;99.90;;;;;;5042301;28;20045;-66
2023/05/23 02:31:33;;;;;;;28.98;10.88;;;12.80;99.90;;;;;;5074487;28;20128;-67
2023/05/23 02:33:59;;;;;;;25.05;11.52;;;12.80;99.90;;;;;;5070652;28;20045;-65
2023/05/23 02:36:25;;;;;;;30.60;13.02;;;12.80;99.90;;;;;;5037402;28;20033;-65
2023/05/23 02:38:51;;;;;;;29.50;13.63;;;12.70;99.90;;;;;;5054631;28;20670;-66
2023/05/23 02:41:16;;;;;;;19.42;8.88;;;12.70;99.90;;;;;;5043319;28;20132;-65
2023/05/23 02:43:45;;;;;;;28.80;10.40;;;12.70;99.90;;;;;;5073757;28;20048;-67
2023/05/23 02:46:12;;;;;;;22.23;7.20;;;12.70;99.90;;;;;;5039967;28;20073;-65
2023/05/23 02:48:38;;;;;;;18.33;6.90;;;12.70;99.90;;;;;;5041258;28;20101;-67
2023/05/23 02:51:03;;;;;;;32.58;13.13;;;12.70;99.90;;;;;;5041763;28;20388;-70
2023/05/23 02:53:29;;;;;;;25.13;11.70;;;12.60;99.90;;;;;;5039191;28;20507;-65
2023/05/23 02:55:54;;;;;;;24.65;8.23;;;12.60;99.90;;;;;;5044297;28;20032;-66
2023/05/23 02:58:20;;;;;;;21.65;9.25;;;12.60;99.90;;;;;;5078372;28;20046;-65
2023/05/23 03:00:45;;;;;;;21.63;8.55;;;12.70;99.90;;;;;;5073951;28;20119;-66
2023/05/23 03:03:11;;;;;;;22.13;7.35;;;12.70;99.90;;;;;;5077584;28;20288;-63
2023/05/23 03:05:37;;;;;;;21.80;8.48;;;12.70;99.90;;;;;;5077561;28;20114;-66
2023/05/23 03:08:02;;;;;;;21.08;8.85;;;12.70;99.90;;;;;;5075970;28;20036;-65
2023/05/23 03:10:28;;;;;;;20.42;9.05;;;12.60;99.90;;;;;;5042887;28;20500;-68
2023/05/23 03:12:53;;;;;;;19.70;7.75;;;12.60;99.90;;;;;;5045570;28;20397;-65
2023/05/23 03:15:19;;;;;;;26.63;11.05;;;12.60;99.90;;;;;;5042978;28;20040;-67
2023/05/23 03:17:45;;;;;;;20.17;7.00;;;12.60;99.90;;;;;;5043730;28;20106;-65
2023/05/23 03:20:10;;;;;;;23.52;7.47;;;12.60;99.90;;;;;;5045266;28;20740;-66
2023/05/23 03:22:36;;;;;;;17.73;7.00;;;12.60;99.90;;;;;;5075852;28;20200;-65
2023/05/23 03:25:03;;;;;;;23.60;8.88;;;12.60;99.90;;;;;;5076697;28;20042;-66
2023/05/23 03:27:28;;;;;;;22.60;9.55;;;12.60;99.90;;;;;;5027211;28;20395;-66
2023/05/23 03:29:54;;;;;;;23.67;7.82;;;12.50;99.90;;;;;;5044334;28;21431;-63
2023/05/23 03:32:19;;;;;;;26.67;9.20;;;12.60;99.90;;;;;;5042427;28;20599;-66
2023/05/23 03:34:45;;;;;;;16.45;6.55;;;12.60;99.90;;;;;;5045346;28;20105;-63
2023/05/23 03:37:11;;;;;;;18.92;7.57;;;12.60;99.90;;;;;;5077014;28;20379;-65
2023/05/23 03:39:36;;;;;;;16.20;7.55;;;12.60;99.90;;;;;;5042395;28;20506;-65
2023/05/23 03:42:02;;;;;;;16.77;6.78;;;12.50;99.90;;;;;;5043975;28;20699;-64
2023/05/23 03:44:27;;;;;;;21.10;8.25;;;12.60;99.90;;;;;;5042917;28;20314;-65
2023/05/23 03:46:53;;;;;;;18.60;6.53;;;12.50;99.90;;;;;;5040281;28;20040;-65
2023/05/23 03:49:18;;;;;;;22.90;7.13;;;12.50;99.90;;;;;;5041133;28;20068;-64
2023/05/23 03:51:44;;;;;;;19.42;6.97;;;12.50;99.90;;;;;;5045276;28;20048;-65
2023/05/23 03:54:09;;;;;;;22.15;8.55;;;12.60;99.90;;;;;;5079169;28;20112;-66
2023/05/23 03:56:35;;;;;;;18.60;7.30;;;12.50;99.90;;;;;;5076963;28;21573;-65
2023/05/23 03:59:00;;;;;;;28.00;8.85;;;12.50;99.90;;;;;;5045532;28;20029;-65
2023/05/23 04:01:26;;;;;;;19.98;5.95;;;12.60;99.90;;;;;;5028879;28;20036;-65
2023/05/23 04:03:52;;;;;;;17.63;7.80;;;12.50;99.90;;;;;;5075068;28;20048;-67
2023/05/23 04:06:19;;;;;;;23.88;6.80;;;12.50;99.90;;;;;;5076274;28;20057;-66
2023/05/23 04:08:44;;;;;;;22.25;7.05;;;12.50;99.90;;;;;;5045812;28;20103;-65
2023/05/23 04:11:10;;;;;;;21.70;9.07;;;12.50;99.90;;;;;;5045727;28;20041;-65
2023/05/23 04:13:36;;;;;;;14.35;5.90;;;12.50;99.90;;;;;;5044094;28;20045;-64
2023/05/23 04:16:04;;;;;;;16.98;7.15;;;12.40;99.90;;;;;;5040859;28;20037;-67
2023/05/23 04:18:32;;;;;;;16.05;6.65;;;12.40;99.90;;;;;;5045004;28;20029;-64
2023/05/23 04:20:58;;;;;;;23.20;7.18;;;12.40;99.90;;;;;;5075456;28;20045;-64
2023/05/23 04:23:23;;;;;;;17.17;6.25;;;12.40;99.90;;;;;;5077309;28;20094;-65
2023/05/23 04:25:50;;;;;;;18.67;6.60;;;12.40;99.90;;;;;;5040399;28;20041;-66
2023/05/23 04:28:16;;;;;;;16.42;5.65;;;12.40;99.90;;;;;;5078879;28;20049;-67
2023/05/23 04:30:42;;;;;;;19.50;5.03;;;12.30;99.90;;;;;;5073408;28;20091;-65
2023/05/23 04:33:08;;;;;;;14.75;4.65;;;12.30;99.90;;;;;;5046163;28;20388;-65
2023/05/23 04:35:37;;;;;;;15.30;6.05;;;12.30;99.90;;;;;;5045634;28;20174;-66
2023/05/23 04:38:03;;;;;;;9.48;4.32;;;12.30;99.90;;;;;;5044295;28;20073;-63
2023/05/23 04:40:30;;;;;;;15.63;7.28;;;12.30;99.90;;;;;;5072093;28;20068;-65
2023/05/23 04:42:56;;;;;;;15.68;5.43;;;12.20;99.90;;;;;;5076699;28;20052;-67
2023/05/23 04:45:21;;;;;;;14.32;5.75;;;12.20;99.90;;;;;;5043895;28;20048;-65
2023/05/23 04:47:47;;;;;;;12.90;5.70;;;12.20;99.90;;;;;;5041987;28;20037;-65
2023/05/23 04:50:17;;;;;;;18.10;5.35;;;12.10;99.90;;;;;;5026571;28;20044;-64
2023/05/23 04:52:42;;;;;;;18.00;7.07;;;12.10;99.90;;;;;;5041911;28;20106;-66
2023/05/23 04:55:08;;;;;;;19.77;8.00;;;12.10;99.90;;;;;;5042533;28;20449;-66
2023/05/23 04:57:34;;;;;;;13.55;5.65;;;12.10;99.90;;;;;;5043828;28;20039;-64
2023/05/23 05:00:00;;;;;;;13.38;5.07;;;12.00;99.90;;;;;;5044749;28;20112;-65
2023/05/23 05:02:26;;;;;;;18.67;7.78;;;12.00;99.90;;;;;;5037785;28;20403;-64
2023/05/23 05:04:52;;;;;;;20.23;7.65;;;12.00;99.90;;;;;;5042699;28;20047;-64
2023/05/23 05:07:17;;;;;;;14.68;6.47;;;12.00;99.90;;;;;;5042526;28;20048;-65
2023/05/23 05:09:43;;;;;;;18.08;7.97;;;12.00;99.90;;;;;;5075295;28;20049;-64
2023/05/23 05:12:09;;;;;;;18.75;8.25;;;12.10;99.90;;;;;;5040352;28;20391;-65
2023/05/23 05:14:34;;;;;;;15.98;7.10;;;12.00;99.90;;;;;;5041819;28;20498;-65
2023/05/23 05:17:01;;;;;;;20.83;5.88;;;12.00;99.90;;;;;;5041641;28;20044;-67
2023/05/23 05:19:27;;;;;;;16.02;5.20;;;12.00;99.90;;;;;;5074331;28;20033;-66
2023/05/23 05:21:52;;;;;;;19.98;6.13;;;12.00;99.90;;;;;;5042995;28;20047;-68
2023/05/23 05:24:19;;;;;;;15.40;5.95;;;12.00;99.90;;;;;;5042091;28;20190;-67
2023/05/23 05:26:46;;;;;;;17.27;5.10;;;12.00;99.90;;;;;;5040419;28;20075;-68
2023/05/23 05:29:12;;;;;;;11.10;4.72;;;12.00;99.90;;;;;;5041274;28;20158;-68
2023/05/23 05:31:37;;;;;;;13.85;4.53;;;11.90;99.90;;;;;;5073361;28;20203;-66
2023/05/23 05:34:03;;;;;;;12.50;4.57;;;11.90;99.90;;;;;;5038984;28;20063;-67
2023/05/23 05:36:28;;;;;;;10.90;4.65;;;11.90;99.90;;;;;;5039502;28;20483;-69
2023/05/23 05:38:54;;;;;;;9.63;4.65;;;11.90;99.90;;;;;;5041798;28;20093;-68
2023/05/23 05:41:21;;;;;;;21.23;6.13;;;11.90;99.90;;;;;;5040251;28;20048;-68
2023/05/23 05:43:46;;;;;;;13.13;5.47;;;11.80;99.90;;;;;;5042029;28;20586;-70
2023/05/23 05:46:12;;;;;;;18.02;6.53;;;11.80;99.90;;;;;;5038365;28;20135;-66
2023/05/23 05:48:37;;;;;;;15.88;6.47;;;11.70;99.90;;;;;;5042990;28;20535;-68
2023/05/23 05:51:03;;;;;;;9.45;3.78;;;11.70;99.90;;;;;;5042733;28;20190;-69
2023/05/23 05:53:29;;;;;;;11.60;4.97;;;11.70;99.90;;;;;;5044204;28;20040;-65
2023/05/23 05:55:54;;;;;;;12.45;4.63;;;11.60;99.90;;;;;;5073642;28;20395;-68
2023/05/23 05:58:20;;;;;;;13.65;5.20;;;11.60;99.90;;;;;;5072565;28;20036;-68
2023/05/23 06:00:47;;;;;;;16.98;4.95;;;11.70;99.90;;;;;;5041393;28;20043;-64
2023/05/23 06:03:14;;;;;;;8.80;4.72;;;11.60;99.90;;;;;;5039895;28;20036;-68
2023/05/23 06:05:40;;;;;;;13.70;4.75;;;11.60;99.90;;;;;;5040444;28;20041;-69
2023/05/23 06:08:06;;;;;;;14.27;5.53;;;11.60;99.90;;;;;;5074318;28;20124;-67
2023/05/23 06:10:31;;;;;;;13.80;5.10;;;11.50;99.90;;;;;;5043910;28;20041;-66
2023/05/23 06:12:57;;;;;;;15.02;5.20;;;11.50;99.90;;;;;;5042750;28;20500;-68
2023/05/23 06:15:23;;;;;;;12.00;4.30;;;11.50;99.90;;;;;;5043666;28;20052;-68
2023/05/23 06:17:50;;;;;;;12.65;5.03;;;11.50;99.90;;;;;;5079110;28;20319;-68
2023/05/23 06:20:15;;;;;;;11.68;4.60;;;11.40;99.90;;;;;;5060272;28;20431;-69
2023/05/23 06:22:41;;;;;;;13.20;4.82;;;11.40;99.90;;;;;;5042549;28;20048;-70
2023/05/23 06:25:07;;;;;;;16.33;5.95;;;11.40;99.90;;;;;;5074233;28;20069;-67
2023/05/23 06:27:32;;;;;;;15.13;4.70;;;11.40;99.90;;;;;;5037634;28;20476;-66
2023/05/23 06:29:58;;;;;;;15.85;5.72;;;11.40;99.90;;;;;;5043743;28;20068;-68
2023/05/23 06:32:23;;;;;;;13.93;4.85;;;11.40;99.90;;;;;;5037464;28;20369;-66
2023/05/23 06:34:49;;;;;;;9.75;4.43;;;11.50;99.90;;;;;;5078957;28;20041;-68
2023/05/23 06:37:15;;;;;;;15.18;4.70;;;11.50;99.90;;;;;;5073966;28;20037;-68
2023/05/23 06:39:41;;;;;;;12.80;4.20;;;11.50;99.90;;;;;;5048912;28;20457;-66
2023/05/23 06:42:06;;;;;;;15.55;4.40;;;11.50;99.90;;;;;;5045802;28;20051;-69
2023/05/23 06:44:32;;;;;;;10.60;3.47;;;11.60;99.90;;;;;;5045198;28;20369;-67
2023/05/23 06:46:58;;;;;;;12.32;4.25;;;11.60;99.90;;;;;;5043032;28;20158;-68
2023/05/23 06:49:24;;;;;;;12.48;3.42;;;11.50;99.90;;;;;;5058048;28;20136;-68
2023/05/23 06:51:50;;;;;;;12.07;3.95;;;11.50;99.90;;;;;;5026160;28;20040;-68
2023/05/23 06:54:17;;;;;;;10.90;3.53;;;11.60;99.90;;;;;;5044794;28;20514;-69
2023/05/23 06:56:42;;;;;;;10.20;3.90;;;11.60;99.90;;;;;;5043117;28;20093;-66
2023/05/23 06:59:08;;;;;;;10.82;3.67;;;11.60;99.90;;;;;;5082219;28;20049;-68
2023/05/23 07:01:33;;;;;;;11.10;3.60;;;11.60;99.90;;;;;;5050446;28;20044;-69
2023/05/23 07:03:59;;;;;;;13.40;3.85;;;11.50;99.90;;;;;;5046713;28;20037;-68
2023/05/23 07:06:26;;;;;;;12.45;4.43;;;11.50;99.90;;;;;;5049791;28;20045;-67
2023/05/23 07:08:52;;;;;;;18.92;4.35;;;11.50;99.90;;;;;;5071667;28;20454;-68
2023/05/23 07:11:18;;;;;;;12.27;4.28;;;11.50;99.90;;;;;;5085592;28;20044;-69
2023/05/23 07:13:44;;;;;;;11.07;3.10;;;11.50;99.90;;;;;;5045266;28;20051;-65
2023/05/23 07:16:10;;;;;;;11.80;4.38;;;11.60;99.90;;;;;;5082330;28;20041;-69
2023/05/23 07:18:35;;;;;;;14.63;3.50;;;11.70;99.90;;;;;;5046156;28;20037;-67
2023/05/23 07:21:01;;;;;;;13.70;3.80;;;11.70;99.90;;;;;;5046621;28;20409;-66
2023/05/23 07:23:26;;;;;;;18.23;3.72;;;11.80;99.90;;;;;;5074507;28;20124;-68
2023/05/23 07:25:52;;;;;;;14.75;3.00;;;11.80;99.90;;;;;;5045452;28;20052;-68
2023/05/23 07:28:19;;;;;;;12.60;3.10;;;11.90;99.90;;;;;;5078546;28;20037;-69
2023/05/23 07:30:45;;;;;;;11.05;2.80;;;12.00;99.90;;;;;;5047036;28;20049;-65
2023/05/23 07:33:10;;;;;;;16.73;3.92;;;12.10;99.90;;;;;;5040716;28;20086;-69
2023/05/23 07:35:36;;;;;;;17.92;3.35;;;12.20;99.90;;;;;;5047693;28;20098;-68
2023/05/23 07:38:01;;;;;;;9.27;2.50;;;12.40;99.90;;;;;;5077757;28;20041;-68
2023/05/23 07:40:27;;;;;;;16.05;3.45;;;12.50;99.90;;;;;;5040584;28;20064;-68
2023/05/23 07:42:53;;;;;;;14.88;3.75;;;12.40;99.90;;;;;;5073578;28;21432;-65
2023/05/23 07:45:18;;;;;;;12.15;3.15;;;12.40;99.90;;;;;;5042657;28;20045;-66
2023/05/23 07:47:44;;;;;;;8.50;2.42;;;12.40;99.90;;;;;;5042187;28;20051;-70
2023/05/23 07:50:10;;;;;;;14.77;4.57;;;12.40;99.90;;;;;;5072564;28;20040;-67
2023/05/23 07:52:35;;;;;;;12.10;2.88;;;12.30;99.90;;;;;;5042918;28;20040;-69
2023/05/23 07:55:01;;;;;;;16.20;3.28;;;12.20;99.90;;;;;;5047324;28;20083;-67
2023/05/23 07:57:26;;;;;;;9.20;3.20;;;12.20;99.90;;;;;;5073124;28;20060;-71
2023/05/23 07:59:53;;;;;;;14.82;2.60;;;12.20;99.90;;;;;;5046491;28;20395;-68
2023/05/23 08:02:19;;;;;;;11.10;2.38;;;12.20;99.90;;;;;;5076025;28;20036;-70
2023/05/23 08:04:46;;;;;;;13.68;2.90;;;12.20;99.90;;;;;;5042076;28;20041;-68
2023/05/23 08:07:11;;;;;;;18.38;4.13;;;12.20;99.90;;;;;;5044405;28;20380;-68
2023/05/23 08:09:40;;;;;;;18.38;3.80;;;12.30;99.90;;;;;;5074056;28;20106;-66
2023/05/23 08:12:08;;;;;;;12.50;3.63;;;12.30;99.90;;;;;;5045069;28;20057;-68
2023/05/23 08:14:34;;;;;;;16.92;3.42;;;12.40;99.90;;;;;;5076682;28;20037;-69
2023/05/23 08:17:00;;;;;;;6.65;2.90;;;12.40;99.90;;;;;;5075130;28;20091;-69
2023/05/23 08:19:25;;;;;;;13.00;2.92;;;12.40;99.90;;;;;;5077550;28;20480;-70
2023/05/23 08:21:52;;;;;;;18.38;3.70;;;12.50;99.90;;;;;;5074010;28;20045;-67
2023/05/23 08:24:19;;;;;;;13.57;2.60;;;12.50;99.90;;;;;;5047235;28;20052;-68
2023/05/23 08:26:44;;;;;;;10.32;3.47;;;12.60;99.90;;;;;;5049732;28;20576;-67
2023/05/23 08:29:10;;;;;;;11.60;3.05;;;12.60;99.90;;;;;;5045395;28;20044;-70
2023/05/23 08:31:35;;;;;;;13.85;3.15;;;12.80;99.90;;;;;;5049904;28;20484;-69
2023/05/23 08:34:01;;;;;;;7.53;2.33;;;12.90;99.90;;;;;;5049594;28;20124;-67
2023/05/23 08:36:27;;;;;;;14.25;3.58;;;13.00;99.90;;;;;;5082183;28;20048;-67
2023/05/23 08:38:52;;;;;;;9.80;2.78;;;13.00;99.90;;;;;;5046646;28;20051;-65
2023/05/23 08:41:22;;;;;;;9.75;2.58;;;13.00;99.90;;;;;;5076644;28;20048;-68
2023/05/23 08:43:48;;;;;;;24.05;4.32;;;13.10;99.90;;;;;;5074990;28;20094;-64
2023/05/23 08:46:15;;;;;;;19.02;3.72;;;13.30;99.90;;;;;;5031813;28;20479;-65
2023/05/23 08:48:42;;;;;;;16.38;3.38;;;13.40;99.90;;;;;;5033749;28;20036;-67
2023/05/23 08:51:14;;;;;;;10.82;2.65;;;13.60;99.90;;;;;;5066208;28;20091;-66
2023/05/23 08:53:43;;;;;;;8.93;2.25;;;13.60;99.90;;;;;;5042073;28;20127;-67
2023/05/23 08:56:10;;;;;;;13.73;3.30;;;13.60;99.90;;;;;;5040072;28;20042;-68
2023/05/23 08:58:37;;;;;;;6.57;2.65;;;13.60;99.90;;;;;;5039683;28;20045;-69
2023/05/23 09:01:03;;;;;;;14.57;3.90;;;13.70;99.90;;;;;;5042347;28;20068;-69
2023/05/23 09:03:29;;;;;;;10.10;2.85;;;13.70;99.90;;;;;;5047723;28;20083;-66
2023/05/23 09:05:54;;;;;;;13.45;3.35;;;13.60;99.90;;;;;;5082031;28;20052;-69
2023/05/23 09:08:21;;;;;;;13.90;3.00;;;13.60;99.90;;;;;;5045534;28;20037;-70
2023/05/23 09:10:50;;;;;;;12.52;3.78;;;13.70;99.90;;;;;;5047321;28;20055;-67
2023/05/23 09:13:16;;;;;;;16.65;4.40;;;13.90;99.90;;;;;;5046319;28;20048;-67
2023/05/23 09:16:05;;;;;;;13.30;3.33;;;14.10;99.90;;;;;;5081761;28;20049;-69
2023/05/23 09:18:37;;;;;;;17.27;4.00;;;14.20;99.90;;;;;;5044170;28;20132;-67
2023/05/23 09:21:03;;;;;;;13.73;3.28;;;14.30;99.90;;;;;;5042511;28;20383;-68
2023/05/23 09:23:34;;;;;;;13.25;2.92;;;14.50;99.90;;;;;;5045815;28;20095;-69
2023/05/23 09:26:07;;;;;;;16.38;3.33;;;14.40;99.90;;;;;;5077770;28;20106;-69
2023/05/23 09:28:34;;;;;;;14.63;3.97;;;14.20;99.90;;;;;;5041375;28;20048;-67
2023/05/23 09:31:05;;;;;;;13.32;3.10;;;14.10;99.90;;;;;;5065781;28;20068;-69
2023/05/23 09:33:48;;;;;;;11.77;3.38;;;14.20;99.90;;;;;;5074979;28;20045;-69
2023/05/23 09:36:15;;;;;;;8.73;2.33;;;14.10;99.90;;;;;;5034854;28;20041;-69
2023/05/23 09:38:43;;;;;;;15.27;2.65;;;14.00;99.90;;;;;;5079174;28;20235;-68
2023/05/23 09:41:12;;;;;;;13.07;3.58;;;13.90;99.90;;;;;;5043807;28;20033;-64
2023/05/23 09:43:39;;;;;;;12.23;3.88;;;14.10;99.90;;;;;;5079270;28;20049;-67
2023/05/23 09:46:09;;;;;;;16.75;3.83;;;14.20;99.90;;;;;;5040616;28;20107;-67
2023/05/23 09:48:36;;;;;;;13.93;3.72;;;14.30;99.90;;;;;;5044964;28;20278;-67
2023/05/23 09:51:09;;;;;;;13.25;3.47;;;14.40;99.90;;;;;;5048323;28;20083;-68
2023/05/23 09:53:35;;;;;;;13.55;3.42;;;14.50;99.90;;;;;;5062212;28;20408;-68
2023/05/23 09:56:04;;;;;;;12.85;2.72;;;14.60;99.90;;;;;;5038646;28;20036;-67
2023/05/23 09:58:33;;;;;;;14.60;2.78;;;14.50;99.90;;;;;;5043477;28;20614;-67
2023/05/23 10:01:02;;;;;;;11.85;3.40;;;14.40;99.90;;;;;;5074850;28;20120;-66
2023/05/23 10:03:35;;;;;;;17.05;3.45;;;14.50;99.90;;;;;;5054421;28;20494;-68
2023/05/23 10:06:13;;;;;;;17.42;3.10;;;14.70;99.90;;;;;;5081273;28;20040;-68
2023/05/23 10:08:43;;;;;;;11.10;3.42;;;14.70;99.90;;;;;;5041221;28;20053;-69
2023/05/23 10:11:15;;;;;;;14.40;3.25;;;14.60;99.90;;;;;;5051927;28;20036;-68
2023/05/23 10:13:49;;;;;;;11.35;3.50;;;14.50;99.90;;;;;;5050231;28;20052;-67
2023/05/23 10:16:22;;;;;;;12.68;3.50;;;14.50;99.90;;;;;;5076787;28;20041;-68
2023/05/23 10:18:58;;;;;;;12.00;3.50;;;14.40;99.90;;;;;;5047277;28;20431;-69
2023/05/23 10:21:38;;;;;;;12.05;2.85;;;14.40;99.90;;;;;;5052411;28;20041;-70
2023/05/23 10:24:04;;;;;;;13.00;3.00;;;14.50;99.90;;;;;;5051671;28;20118;-67
2023/05/23 10:26:30;;;;;;;8.57;2.63;;;14.50;99.90;;;;;;5070110;28;20400;-68
2023/05/23 10:28:56;;;;;;;13.93;2.97;;;14.70;99.90;;;;;;5038345;28;20451;-68
2023/05/23 10:31:23;;;;;;;14.10;3.55;;;14.70;99.90;;;;;;5078456;28;20133;-67
2023/05/23 10:33:59;;;;;;;11.40;2.97;;;14.80;99.90;;;;;;5075405;28;20483;-68
2023/05/23 10:36:34;;;;;;;18.33;3.58;;;14.90;99.90;;;;;;5080869;28;20032;-66
2023/05/23 10:39:18;;;;;;;9.50;3.42;;;15.00;99.90;;;;;;5043983;28;20041;-68
2023/05/23 10:41:49;;;;;;;14.93;3.33;;;14.90;99.90;;;;;;5044922;28;20029;-73
2023/05/23 10:44:19;;;;;;;11.13;2.80;;;14.70;99.90;;;;;;5039806;28;20183;-67
2023/05/23 10:46:54;;;;;;;12.02;2.60;;;14.50;99.90;;;;;;5040683;28;20053;-65
2023/05/23 10:49:45;;;;;;;12.35;2.95;;;14.60;99.90;;;;;;5044632;28;20609;-67
2023/05/23 10:52:16;;;;;;;14.52;3.53;;;14.70;99.90;;;;;;5049357;28;20049;-68
2023/05/23 10:54:43;;;;;;;11.82;2.08;;;15.00;99.90;;;;;;5048795;28;20079;-70
2023/05/23 10:57:10;;;;;;;12.63;2.58;;;15.20;99.90;;;;;;5049392;28;20283;-70
2023/05/23 10:59:37;;;;;;;9.00;1.92;;;15.10;99.90;;;;;;5056558;28;20028;-66
2023/05/23 11:02:11;;;;;;;9.07;2.40;;;14.90;99.90;;;;;;5046751;28;20041;-68
2023/05/23 11:04:36;;;;;;;13.93;2.50;;;14.90;99.90;;;;;;5044422;28;20088;-67
2023/05/23 11:07:02;;;;;;;12.45;2.55;;;15.00;99.90;;;;;;5049204;28;20088;-68
2023/05/23 11:09:27;;;;;;;13.32;3.08;;;14.80;99.90;;;;;;5044068;28;20089;-70
2023/05/23 11:12:04;;;;;;;13.20;2.65;;;14.60;99.90;;;;;;5051103;28;20040;-67
2023/05/23 11:14:31;;;;;;;14.55;2.65;;;14.40;99.90;;;;;;5051279;28;20098;-69
2023/05/23 11:16:57;;;;;;;9.32;3.00;;;14.20;99.90;;;;;;5050960;28;20041;-68
2023/05/23 11:19:26;;;;;;;10.73;2.72;;;14.30;99.90;;;;;;5049432;28;20041;-66
2023/05/23 11:21:54;;;;;;;13.88;3.88;;;14.40;99.90;;;;;;5048037;28;20036;-66
2023/05/23 11:24:20;;;;;;;14.75;3.03;;;14.50;99.90;;;;;;5074231;28;20076;-66
2023/05/23 11:26:56;;;;;;;15.23;3.05;;;14.70;99.90;;;;;;5076006;28;20096;-67
2023/05/23 11:29:23;;;;;;;16.08;2.88;;;14.90;99.90;;;;;;5046458;28;20048;-66
2023/05/23 11:31:48;;;;;;;9.27;2.38;;;14.80;99.90;;;;;;5073647;28;20140;-68
2023/05/23 11:34:14;;;;;;;13.70;2.72;;;14.80;99.90;;;;;;5044132;28;20123;-66
2023/05/23 11:36:40;;;;;;;8.77;2.50;;;14.90;99.90;;;;;;5050697;28;20538;-69
2023/05/23 11:39:06;;;;;;;12.68;2.80;;;15.00;99.90;;;;;;5047091;28;20033;-66
2023/05/23 11:41:33;;;;;;;13.15;3.08;;;15.00;99.90;;;;;;5049957;28;20403;-67
2023/05/23 11:44:00;;;;;;;11.10;2.65;;;15.20;99.90;;;;;;5047823;28;20067;-68
2023/05/23 11:46:26;;;;;;;4.22;2.47;;;15.30;99.90;;;;;;5080098;28;20064;-66
2023/05/23 11:48:52;;;;;;;14.02;3.50;;;15.30;99.90;;;;;;5044673;28;20076;-66
2023/05/23 11:51:20;;;;;;;12.52;2.92;;;15.10;99.90;;;;;;5050135;28;20045;-67
2023/05/23 11:53:45;;;;;;;11.15;2.70;;;14.90;99.90;;;;;;5047678;28;20041;-69
2023/05/23 11:56:13;;;;;;;10.85;3.35;;;14.70;99.90;;;;;;5049210;28;20123;-67
2023/05/23 11:58:40;;;;;;;12.82;2.75;;;14.80;99.90;;;;;;5046952;28;20044;-67
2023/05/23 12:01:10;;;;;;;18.05;2.08;;;14.90;99.90;;;;;;5050922;28;20040;-66
2023/05/23 12:03:46;;;;;;;10.07;2.22;;;15.10;99.90;;;;;;5045719;28;20055;-66
2023/05/23 12:06:17;;;;;;;15.57;3.28;;;15.00;99.90;;;;;;5081444;28;20064;-66
2023/05/23 12:08:42;;;;;;;11.02;3.00;;;14.80;99.90;;;;;;5047633;28;20083;-68
2023/05/23 12:11:08;;;;;;;14.77;3.00;;;14.80;99.90;;;;;;5048972;28;20033;-67
2023/05/23 12:13:34;;;;;;;12.27;2.80;;;14.70;99.90;;;;;;5037572;28;20163;-67
2023/05/23 12:16:01;;;;;;;13.20;3.88;;;14.90;99.90;;;;;;5045800;28;20068;-69
2023/05/23 12:18:31;;;;;;;16.70;3.42;;;15.00;99.90;;;;;;5034482;28;20045;-67
2023/05/23 12:21:05;;;;;;;11.45;2.85;;;15.10;99.90;;;;;;5031663;28;20041;-67
2023/05/23 12:23:31;;;;;;;14.95;3.58;;;15.00;99.90;;;;;;5047000;28;20124;-68
2023/05/23 12:25:57;;;;;;;9.38;2.03;;;14.90;99.90;;;;;;5050024;28;20139;-66
2023/05/23 12:28:39;;;;;;;14.25;3.05;;;14.80;99.90;;;;;;5069820;28;20072;-68
2023/05/23 12:31:15;;;;;;;12.93;2.90;;;14.70;99.90;;;;;;5084607;28;20041;-68
2023/05/23 12:33:43;;;;;;;11.77;2.67;;;14.60;99.90;;;;;;5047804;28;20037;-68
2023/05/23 12:36:09;;;;;;;8.95;2.30;;;14.50;99.90;;;;;;5082919;28;21309;-67